Perryton, Illinois
Current Conditions -  °F | °C
As of 8:52 PM on Wednesday 22 Oct 2014 (Local Time) from KMLI Reporting Station
Clear Clear  
Wind Chill: 39°   Ceiling: Unl
Heat Index: 39°   Visibility: 10mi
Dew Point: 35°   Wind: 0mph
Humidity: 86%   Direction: NA
Pressure: 30.24"   Gusts: NA
Location:  41.343°N, 90.7388°W
Report Text: KMLI 230152Z 00000KT 10SM CLR 04/02 A3024 RMK AO2 SLP244 T00390017
Loading
Personal Weather Stations






























Interactive Weather Map
Tropical Storm Tracking
New forecast layout! Learn more

10-Day Weather Forecast

Advertisements
Track Severe Weather on mobile